createdAt,value
2023-05-01T00:00:45.930Z,24.56
2023-05-01T00:01:45.974Z,24.56
2023-05-01T00:02:46.099Z,24.55
2023-05-01T00:03:46.208Z,24.56
2023-05-01T00:04:46.170Z,24.55
2023-05-01T00:05:46.141Z,24.53
2023-05-01T00:06:46.304Z,24.53
2023-05-01T00:07:46.258Z,24.50
2023-05-01T00:08:46.250Z,24.55
2023-05-01T00:09:46.319Z,24.55
2023-05-01T00:10:46.361Z,24.53
2023-05-01T00:11:46.377Z,24.53
2023-05-01T00:12:46.392Z,24.53
2023-05-01T00:13:46.460Z,24.55
2023-05-01T00:14:46.484Z,24.52
2023-05-01T00:15:46.543Z,24.53
2023-05-01T00:16:46.675Z,24.53
2023-05-01T00:17:46.615Z,24.55
2023-05-01T00:18:46.634Z,24.55
2023-05-01T00:19:46.685Z,24.55
2023-05-01T00:20:46.717Z,24.55
2023-05-01T00:21:46.764Z,24.52
2023-05-01T00:22:46.795Z,24.55
2023-05-01T00:23:46.861Z,24.52
2023-05-01T00:24:46.902Z,24.52
2023-05-01T00:25:46.972Z,24.53
2023-05-01T00:26:47.114Z,24.53
2023-05-01T00:27:47.062Z,24.53
2023-05-01T00:28:47.119Z,24.52
2023-05-01T00:29:47.117Z,24.52
2023-05-01T00:30:47.205Z,24.52
2023-05-01T00:31:47.332Z,24.52
2023-05-01T00:32:47.328Z,24.55
2023-05-01T00:33:47.312Z,24.50
2023-05-01T00:34:47.341Z,24.50
2023-05-01T00:35:47.390Z,24.49
2023-05-01T00:36:49.334Z,24.52
2023-05-01T00:37:47.502Z,24.50
2023-05-01T00:38:47.560Z,24.50
2023-05-01T00:39:47.576Z,24.52
2023-05-01T00:40:47.635Z,24.53
2023-05-01T00:41:47.720Z,24.50
2023-05-01T00:42:47.739Z,24.50
2023-05-01T00:43:47.762Z,24.49
2023-05-01T00:44:47.814Z,24.50
2023-05-01T00:45:47.890Z,24.49
2023-05-01T00:46:47.934Z,24.47
2023-05-01T00:47:48.004Z,24.50
2023-05-01T00:48:48.057Z,24.49
2023-05-01T00:49:48.070Z,24.49
2023-05-01T00:50:48.129Z,24.49
2023-05-01T00:51:48.181Z,24.49
2023-05-01T00:52:48.220Z,24.50
2023-05-01T00:53:48.247Z,24.52
2023-05-01T00:54:48.309Z,24.49
2023-05-01T00:55:48.392Z,24.49
2023-05-01T00:56:48.404Z,24.49
2023-05-01T00:57:48.469Z,24.46
2023-05-01T00:58:48.490Z,24.49
2023-05-01T00:59:48.530Z,24.49
2023-05-01T01:00:48.621Z,24.47
2023-05-01T01:01:48.720Z,24.47
2023-05-01T01:02:48.714Z,24.47
2023-05-01T01:03:48.737Z,24.47
2023-05-01T01:04:48.889Z,24.46
2023-05-01T01:05:48.831Z,24.47
2023-05-01T01:06:48.972Z,24.49
2023-05-01T01:07:48.890Z,24.46
2023-05-01T01:08:48.931Z,24.49
2023-05-01T01:09:49.020Z,24.46
2023-05-01T01:10:49.039Z,24.46
2023-05-01T01:11:49.079Z,24.47
2023-05-01T01:12:49.133Z,24.47
2023-05-01T01:13:49.170Z,24.46
2023-05-01T01:14:49.206Z,24.46
2023-05-01T01:15:49.252Z,24.46
2023-05-01T01:16:49.401Z,24.46
2023-05-01T01:17:49.420Z,24.47
2023-05-01T01:18:49.380Z,24.46
2023-05-01T01:19:49.460Z,24.44
2023-05-01T01:20:49.522Z,24.47
2023-05-01T01:21:49.528Z,24.47
2023-05-01T01:22:49.562Z,24.46
2023-05-01T01:23:49.612Z,24.46
2023-05-01T01:24:49.657Z,24.44
2023-05-01T01:25:49.723Z,24.47
2023-05-01T01:26:49.738Z,24.47
2023-05-01T01:27:49.809Z,24.43
2023-05-01T01:28:49.855Z,24.47
2023-05-01T01:29:49.829Z,24.44
2023-05-01T01:30:49.887Z,24.47
2023-05-01T01:31:49.880Z,24.47
2023-05-01T01:32:49.979Z,24.47
2023-05-01T01:33:49.978Z,24.46
2023-05-01T01:34:50.132Z,24.47
2023-05-01T01:35:50.108Z,24.44
2023-05-01T01:36:50.112Z,24.44
2023-05-01T01:37:50.160Z,24.43
2023-05-01T01:38:50.215Z,24.44
2023-05-01T01:39:50.237Z,24.44
2023-05-01T01:40:50.314Z,24.44
2023-05-01T01:41:50.355Z,24.43
2023-05-01T01:42:50.397Z,24.44
2023-05-01T01:43:50.443Z,24.46
2023-05-01T01:44:50.514Z,24.46
2023-05-01T01:45:50.569Z,24.43
2023-05-01T01:46:50.658Z,24.44
2023-05-01T01:47:50.683Z,24.43
2023-05-01T01:48:50.688Z,24.44
2023-05-01T01:49:50.727Z,24.44
2023-05-01T01:50:50.788Z,24.43
2023-05-01T01:51:50.862Z,24.43
2023-05-01T01:52:50.864Z,24.43
2023-05-01T01:53:50.923Z,24.42
2023-05-01T01:54:50.960Z,24.43
2023-05-01T01:55:51.042Z,24.43
2023-05-01T01:56:51.549Z,24.42
2023-05-01T01:57:51.141Z,24.42
2023-05-01T01:58:51.158Z,24.43
2023-05-01T01:59:51.220Z,24.43
2023-05-01T02:00:51.262Z,24.42
2023-05-01T02:01:51.571Z,24.44
2023-05-01T02:02:51.400Z,24.40
2023-05-01T02:03:51.525Z,24.42
2023-05-01T02:04:51.460Z,24.39
2023-05-01T02:05:51.495Z,24.40
2023-05-01T02:06:51.558Z,24.40
2023-05-01T02:07:51.460Z,24.40
2023-05-01T02:08:51.458Z,24.42
2023-05-01T02:09:51.480Z,24.43
2023-05-01T02:10:51.467Z,24.42
2023-05-01T02:11:51.474Z,24.42
2023-05-01T02:12:51.460Z,24.42
2023-05-01T02:13:51.471Z,24.40
2023-05-01T02:14:51.489Z,24.40
2023-05-01T02:15:51.552Z,24.40
2023-05-01T02:16:51.622Z,24.43
2023-05-01T02:17:51.670Z,24.39
2023-05-01T02:18:51.716Z,24.42
2023-05-01T02:19:51.745Z,24.42
2023-05-01T02:20:51.799Z,24.42
2023-05-01T02:21:51.870Z,24.42
2023-05-01T02:22:51.917Z,24.42
2023-05-01T02:23:51.980Z,24.42
2023-05-01T02:24:52.014Z,24.40
2023-05-01T02:25:52.104Z,24.43
2023-05-01T02:26:52.139Z,24.40
2023-05-01T02:27:52.197Z,24.42
2023-05-01T02:28:52.231Z,24.40
2023-05-01T02:29:52.328Z,24.40
2023-05-01T02:30:52.342Z,24.40
2023-05-01T02:31:52.463Z,24.39
2023-05-01T02:32:52.476Z,24.42
2023-05-01T02:33:52.523Z,24.40
2023-05-01T02:34:52.558Z,24.39
2023-05-01T02:35:52.634Z,24.39
2023-05-01T02:36:52.655Z,24.40
2023-05-01T02:37:52.692Z,24.40
2023-05-01T02:38:52.761Z,24.39
2023-05-01T02:39:52.828Z,24.40
2023-05-01T02:40:52.874Z,24.39
2023-05-01T02:41:52.914Z,24.37
2023-05-01T02:42:52.991Z,24.39
2023-05-01T02:43:53.046Z,24.40
2023-05-01T02:44:53.083Z,24.39
2023-05-01T02:45:53.301Z,24.39
2023-05-01T02:46:54.175Z,24.39
2023-05-01T02:47:53.250Z,24.37
2023-05-01T02:48:53.285Z,24.40
2023-05-01T02:49:53.425Z,24.39
2023-05-01T02:50:53.366Z,24.39
2023-05-01T02:51:53.362Z,24.36
2023-05-01T02:52:53.367Z,24.37
2023-05-01T02:53:53.364Z,24.37
2023-05-01T02:54:53.370Z,24.39
2023-05-01T02:55:53.438Z,24.39
2023-05-01T02:56:53.488Z,24.39
2023-05-01T02:57:53.542Z,24.39
2023-05-01T02:58:53.586Z,24.40
2023-05-01T02:59:53.892Z,24.37
2023-05-01T03:00:53.769Z,24.40
2023-05-01T03:01:53.794Z,24.39
2023-05-01T03:02:53.910Z,24.37
2023-05-01T03:03:53.949Z,24.39
2023-05-01T03:04:53.962Z,24.39
2023-05-01T03:05:54.012Z,24.37
2023-05-01T03:06:54.140Z,24.37
2023-05-01T03:07:54.115Z,24.39
2023-05-01T03:08:54.158Z,24.37
2023-05-01T03:09:54.454Z,24.39
2023-05-01T03:10:54.281Z,24.37
2023-05-01T03:11:54.347Z,24.36
2023-05-01T03:12:54.407Z,24.37
2023-05-01T03:13:54.496Z,24.36
2023-05-01T03:14:54.565Z,24.37
2023-05-01T03:15:54.621Z,24.35
2023-05-01T03:16:54.802Z,24.36
2023-05-01T03:17:54.753Z,24.36
2023-05-01T03:18:54.721Z,24.37
2023-05-01T03:19:55.186Z,24.37
2023-05-01T03:20:54.816Z,24.37
2023-05-01T03:21:54.886Z,24.37
2023-05-01T03:22:54.956Z,24.33
2023-05-01T03:23:54.990Z,24.37
2023-05-01T03:24:55.047Z,24.37
2023-05-01T03:25:55.126Z,24.36
2023-05-01T03:26:55.186Z,24.36
2023-05-01T03:27:55.543Z,24.35
2023-05-01T03:28:55.264Z,24.37
2023-05-01T03:29:55.632Z,24.37
2023-05-01T03:30:55.398Z,24.36
2023-05-01T03:31:55.449Z,24.37
2023-05-01T03:32:55.564Z,24.36
2023-05-01T03:33:55.581Z,24.33
2023-05-01T03:34:55.633Z,24.36
2023-05-01T03:35:55.695Z,24.35
2023-05-01T03:36:55.728Z,24.35
2023-05-01T03:37:55.770Z,24.39
2023-05-01T03:38:55.819Z,24.36
2023-05-01T03:39:56.092Z,24.36
2023-05-01T03:40:55.931Z,24.36
2023-05-01T03:41:56.083Z,24.36
2023-05-01T03:42:56.126Z,24.33
2023-05-01T03:43:56.087Z,24.33
2023-05-01T03:44:56.146Z,24.37
2023-05-01T03:45:56.228Z,24.33
2023-05-01T03:46:56.287Z,24.32
2023-05-01T03:47:56.326Z,24.33
2023-05-01T03:48:56.355Z,24.35
2023-05-01T03:49:56.604Z,24.36
2023-05-01T03:50:56.455Z,24.36
2023-05-01T03:51:56.569Z,24.33
2023-05-01T03:52:56.593Z,24.33
2023-05-01T03:53:56.612Z,24.33
2023-05-01T03:54:56.724Z,24.33
2023-05-01T03:55:56.718Z,24.35
2023-05-01T03:56:56.806Z,24.33
2023-05-01T03:57:56.847Z,24.36
2023-05-01T03:58:56.873Z,24.33
2023-05-01T03:59:57.163Z,24.36
2023-05-01T04:00:57.059Z,24.35
2023-05-01T04:01:57.130Z,24.35
2023-05-01T04:02:57.371Z,24.35
2023-05-01T04:03:57.308Z,24.35
2023-05-01T04:04:57.231Z,24.33
2023-05-01T04:05:57.386Z,24.33
2023-05-01T04:06:57.365Z,24.35
2023-05-01T04:07:57.414Z,24.35
2023-05-01T04:08:57.447Z,24.33
2023-05-01T04:09:57.889Z,24.33
2023-05-01T04:10:57.592Z,24.33
2023-05-01T04:11:57.615Z,24.33
2023-05-01T04:12:57.699Z,24.35
2023-05-01T04:13:57.741Z,24.32
2023-05-01T04:14:57.801Z,24.33
2023-05-01T04:15:57.985Z,24.33
2023-05-01T04:16:57.907Z,24.36
2023-05-01T04:17:57.971Z,24.36
2023-05-01T04:18:58.027Z,24.33
2023-05-01T04:19:58.467Z,24.35
2023-05-01T04:20:58.158Z,24.36
2023-05-01T04:21:58.214Z,24.33
2023-05-01T04:22:58.236Z,24.35
2023-05-01T04:23:58.291Z,24.33
2023-05-01T04:24:58.416Z,24.33
2023-05-01T04:25:58.406Z,24.32
2023-05-01T04:26:58.461Z,24.32
2023-05-01T04:27:58.543Z,24.35
2023-05-01T04:28:58.598Z,24.32
2023-05-01T04:29:58.950Z,24.35
2023-05-01T04:30:58.707Z,24.33
2023-05-01T04:31:58.948Z,24.33
2023-05-01T04:32:58.850Z,24.33
2023-05-01T04:33:58.885Z,24.33
2023-05-01T04:34:58.912Z,24.35
2023-05-01T04:35:59.010Z,24.35
2023-05-01T04:36:59.051Z,24.33
2023-05-01T04:37:59.101Z,24.33
2023-05-01T04:38:59.148Z,24.33
2023-05-01T04:39:59.326Z,24.32
2023-05-01T04:40:59.278Z,24.32
2023-05-01T04:41:59.331Z,24.35
2023-05-01T04:42:59.388Z,24.32
2023-05-01T04:43:59.454Z,24.32
2023-05-01T04:44:59.510Z,24.33
2023-05-01T04:45:59.557Z,24.36
2023-05-01T04:46:59.682Z,24.35
2023-05-01T04:47:59.768Z,24.33
2023-05-01T04:48:59.738Z,24.35
2023-05-01T04:49:59.803Z,24.33
2023-05-01T04:50:59.876Z,24.35
2023-05-01T04:51:59.953Z,24.33
2023-05-01T04:52:59.975Z,24.32
2023-05-01T04:54:00.048Z,24.30
2023-05-01T04:55:00.140Z,24.35
2023-05-01T04:56:00.157Z,24.33
2023-05-01T04:57:00.222Z,24.35
2023-05-01T04:58:00.290Z,24.32
2023-05-01T04:59:00.315Z,24.33
2023-05-01T05:00:00.378Z,24.35
2023-05-01T05:01:00.433Z,24.36
2023-05-01T05:02:00.546Z,24.35
2023-05-01T05:03:00.654Z,24.35
2023-05-01T05:04:00.858Z,24.35
2023-05-01T05:05:00.693Z,24.35
2023-05-01T05:06:00.761Z,24.35
2023-05-01T05:07:00.818Z,24.35
2023-05-01T05:08:00.858Z,24.36
2023-05-01T05:09:00.890Z,24.35
2023-05-01T05:10:00.944Z,24.36
2023-05-01T05:11:00.997Z,24.37
2023-05-01T05:12:01.121Z,24.37
2023-05-01T05:13:01.166Z,24.36
2023-05-01T05:14:01.178Z,24.37
2023-05-01T05:15:01.230Z,24.36
2023-05-01T05:16:01.314Z,24.37
2023-05-01T05:17:01.349Z,24.37
2023-05-01T05:18:01.445Z,24.36
2023-05-01T05:19:01.423Z,24.37
2023-05-01T05:20:01.479Z,24.36
2023-05-01T05:21:01.536Z,24.37
2023-05-01T05:22:01.583Z,24.39
2023-05-01T05:23:01.648Z,24.39
2023-05-01T05:24:01.700Z,24.37
2023-05-01T05:25:01.743Z,24.37
2023-05-01T05:26:01.847Z,24.39
2023-05-01T05:27:01.882Z,24.42
2023-05-01T05:28:01.908Z,24.39
2023-05-01T05:29:01.988Z,24.37
2023-05-01T05:30:01.989Z,24.40
2023-05-01T05:31:02.068Z,24.40
2023-05-01T05:32:02.247Z,24.39
2023-05-01T05:33:02.191Z,24.39
2023-05-01T05:34:02.209Z,24.40
2023-05-01T05:35:02.295Z,24.39
2023-05-01T05:36:02.343Z,24.42
2023-05-01T05:37:02.377Z,24.40
2023-05-01T05:38:02.436Z,24.42
2023-05-01T05:39:02.493Z,24.40
2023-05-01T05:40:02.523Z,24.40
2023-05-01T05:41:02.580Z,24.40
2023-05-01T05:42:02.621Z,24.42
2023-05-01T05:43:02.667Z,24.40
2023-05-01T05:44:02.737Z,24.39
2023-05-01T05:45:02.771Z,24.42
2023-05-01T05:46:02.858Z,24.43
2023-05-01T05:47:02.927Z,24.40
2023-05-01T05:48:03.090Z,24.44
2023-05-01T05:49:03.008Z,24.40
2023-05-01T05:50:03.064Z,24.40
2023-05-01T05:51:03.130Z,24.43
2023-05-01T05:52:03.158Z,24.43
2023-05-01T05:53:03.224Z,24.43
2023-05-01T05:54:03.256Z,24.43
2023-05-01T05:55:03.305Z,24.43
2023-05-01T05:56:03.358Z,24.43
2023-05-01T05:57:03.410Z,24.43
2023-05-01T05:58:03.485Z,24.43
2023-05-01T05:59:03.502Z,24.43
2023-05-01T06:00:03.568Z,24.40
2023-05-01T06:01:03.628Z,24.43
2023-05-01T06:02:03.742Z,24.44
2023-05-01T06:03:03.875Z,24.43
2023-05-01T06:04:03.805Z,24.44
2023-05-01T06:05:03.929Z,24.43
2023-05-01T06:06:03.968Z,24.43
2023-05-01T06:07:04.067Z,24.43
2023-05-01T06:08:03.990Z,24.44
2023-05-01T06:09:04.048Z,24.46
2023-05-01T06:10:04.103Z,24.43
2023-05-01T06:11:04.144Z,24.47
2023-05-01T06:12:04.185Z,24.44
2023-05-01T06:13:13.769Z,24.44
2023-05-01T06:14:05.225Z,24.47
2023-05-01T06:15:11.299Z,24.47
2023-05-01T06:16:04.242Z,24.47
2023-05-01T06:17:04.243Z,24.49
2023-05-01T06:18:04.217Z,24.49
2023-05-01T06:19:04.201Z,24.50
2023-05-01T06:20:04.205Z,24.49
2023-05-01T06:21:04.180Z,24.50
2023-05-01T06:22:04.173Z,24.52
2023-05-01T06:23:11.190Z,24.52
2023-05-01T06:24:04.179Z,24.53
2023-05-01T06:25:04.148Z,24.55
2023-05-01T06:26:04.164Z,24.53
2023-05-01T06:27:04.165Z,24.56
2023-05-01T06:28:04.182Z,24.55
2023-05-01T06:29:04.121Z,24.56
2023-05-01T06:30:04.127Z,24.56
2023-05-01T06:31:04.173Z,24.59
2023-05-01T06:32:04.120Z,24.59
2023-05-01T06:33:04.137Z,24.62
2023-05-01T06:34:04.119Z,24.62
2023-05-01T06:35:04.130Z,24.63
2023-05-01T06:36:04.075Z,24.60
2023-05-01T06:37:04.087Z,24.60
2023-05-01T06:38:04.097Z,24.66
2023-05-01T06:39:04.083Z,24.64
2023-05-01T06:40:04.062Z,24.64
2023-05-01T06:41:04.054Z,24.63
2023-05-01T06:42:04.061Z,24.66
2023-05-01T06:43:04.033Z,24.64
2023-05-01T06:44:04.031Z,24.67
2023-05-01T06:45:04.044Z,24.68
2023-05-01T06:46:04.021Z,24.67
2023-05-01T06:47:04.135Z,24.66
2023-05-01T06:48:04.076Z,24.67
2023-05-01T06:49:04.015Z,24.67
2023-05-01T06:50:05.493Z,24.67
2023-05-01T06:51:04.014Z,24.67
2023-05-01T06:52:04.021Z,24.67
2023-05-01T06:53:03.981Z,24.67
2023-05-01T06:54:03.986Z,24.67
2023-05-01T06:55:04.049Z,24.67
2023-05-01T06:56:04.055Z,24.67
2023-05-01T06:57:04.111Z,24.70
2023-05-01T06:58:12.626Z,24.68
2023-05-01T06:59:05.123Z,24.67
2023-05-01T07:00:04.126Z,24.70
2023-05-01T07:01:04.161Z,24.70
2023-05-01T07:02:04.223Z,24.68
2023-05-01T07:03:04.144Z,24.70
2023-05-01T07:04:04.125Z,24.70
2023-05-01T07:05:04.090Z,24.68
2023-05-01T07:06:04.151Z,24.70
2023-05-01T07:07:04.083Z,24.70
2023-05-01T07:08:04.080Z,24.70
2023-05-01T07:09:04.081Z,24.71
2023-05-01T07:10:04.047Z,24.70
2023-05-01T07:11:04.094Z,24.70
2023-05-01T07:12:04.227Z,24.70
2023-05-01T07:13:04.124Z,24.71
2023-05-01T07:14:04.156Z,24.70
2023-05-01T07:15:04.172Z,24.70
2023-05-01T07:16:04.226Z,24.74
2023-05-01T07:17:04.295Z,24.71
2023-05-01T07:18:04.353Z,24.73
2023-05-01T07:19:04.322Z,24.73
2023-05-01T07:20:04.347Z,24.73
2023-05-01T07:21:04.419Z,24.74
2023-05-01T07:22:04.400Z,24.74
2023-05-01T07:23:07.117Z,24.71
2023-05-01T07:24:06.256Z,24.71
2023-05-01T07:25:04.428Z,24.70
2023-05-01T07:26:04.412Z,24.71
2023-05-01T07:27:04.426Z,24.74
2023-05-01T07:28:04.440Z,24.73
2023-05-01T07:29:04.419Z,24.73
2023-05-01T07:30:04.421Z,24.74
2023-05-01T07:31:04.397Z,24.73
2023-05-01T07:32:04.421Z,24.73
2023-05-01T07:33:04.500Z,24.71
2023-05-01T07:34:04.391Z,24.71
2023-05-01T07:35:04.375Z,24.73
2023-05-01T07:36:04.364Z,24.73
2023-05-01T07:37:04.354Z,24.71
2023-05-01T07:38:04.333Z,24.70
2023-05-01T07:39:04.324Z,24.71
2023-05-01T07:40:04.357Z,24.71
2023-05-01T07:41:04.378Z,24.73
2023-05-01T07:42:04.417Z,24.74
2023-05-01T07:43:04.482Z,24.71
2023-05-01T07:44:04.478Z,24.73
2023-05-01T07:45:04.518Z,24.74
2023-05-01T07:46:04.560Z,24.71
2023-05-01T07:47:04.607Z,24.73
2023-05-01T07:48:04.616Z,24.74
2023-05-01T07:49:04.629Z,24.73
2023-05-01T07:50:04.662Z,24.77
2023-05-01T07:51:04.695Z,24.74
2023-05-01T07:52:04.759Z,24.76
2023-05-01T07:53:04.814Z,24.76
2023-05-01T07:54:04.997Z,24.77
2023-05-01T07:55:04.807Z,24.76
2023-05-01T07:56:04.846Z,24.77
2023-05-01T07:57:04.935Z,24.76
2023-05-01T07:58:04.906Z,24.77
2023-05-01T07:59:04.960Z,24.77
2023-05-01T08:00:04.983Z,24.77
2023-05-01T08:01:05.008Z,24.76
2023-05-01T08:02:05.048Z,24.81
2023-05-01T08:03:05.127Z,24.78
2023-05-01T08:04:05.175Z,24.80
2023-05-01T08:05:05.124Z,24.76
2023-05-01T08:06:05.219Z,24.83
2023-05-01T08:07:05.273Z,24.83
2023-05-01T08:08:05.257Z,24.81
2023-05-01T08:09:05.295Z,24.83
2023-05-01T08:10:05.641Z,24.83
2023-05-01T08:11:05.340Z,24.87
2023-05-01T08:12:05.364Z,24.87
2023-05-01T08:13:05.440Z,24.87
2023-05-01T08:14:05.447Z,24.90
2023-05-01T08:15:05.476Z,24.90
2023-05-01T08:16:05.549Z,24.91
2023-05-01T08:17:05.545Z,24.93
2023-05-01T08:18:05.678Z,24.94
2023-05-01T08:19:05.624Z,24.95
2023-05-01T08:20:05.667Z,24.93
2023-05-01T08:21:05.672Z,24.97
2023-05-01T08:22:05.715Z,24.95
2023-05-01T08:23:05.747Z,24.97
2023-05-01T08:24:05.767Z,24.98
2023-05-01T08:25:05.783Z,24.98
2023-05-01T08:26:05.810Z,24.98
2023-05-01T08:27:05.841Z,25.01
2023-05-01T08:28:05.873Z,25.03
2023-05-01T08:29:05.910Z,25.03
2023-05-01T08:30:05.938Z,25.03
2023-05-01T08:31:06.014Z,25.03
2023-05-01T08:32:05.973Z,25.03
2023-05-01T08:33:06.099Z,25.03
2023-05-01T08:34:06.021Z,25.06
2023-05-01T08:35:06.054Z,25.06
2023-05-01T08:36:06.084Z,25.04
2023-05-01T08:37:06.107Z,25.07
2023-05-01T08:38:06.154Z,25.06
2023-05-01T08:39:06.165Z,25.08
2023-05-01T08:40:06.191Z,25.07
2023-05-01T08:41:06.248Z,25.08
2023-05-01T08:42:06.252Z,25.08
2023-05-01T08:43:06.290Z,25.08
2023-05-01T08:44:06.302Z,25.07
2023-05-01T08:45:06.354Z,25.11
2023-05-01T08:46:06.378Z,25.11
2023-05-01T08:47:06.473Z,25.10
2023-05-01T08:48:06.478Z,25.13
2023-05-01T08:49:06.451Z,25.13
2023-05-01T08:50:06.438Z,25.13
2023-05-01T08:51:06.506Z,25.14
2023-05-01T08:52:06.489Z,25.14
2023-05-01T08:53:06.488Z,25.15
2023-05-01T08:54:06.505Z,25.15
2023-05-01T08:55:06.526Z,25.18
2023-05-01T08:56:06.561Z,25.17
2023-05-01T08:57:08.253Z,25.17
2023-05-01T08:58:06.632Z,25.20
2023-05-01T08:59:06.596Z,25.20
2023-05-01T09:00:06.565Z,25.21
2023-05-01T09:01:06.543Z,25.22
2023-05-01T09:02:06.760Z,25.21
2023-05-01T09:03:06.645Z,25.25
2023-05-01T09:04:06.589Z,25.27
2023-05-01T09:05:06.531Z,25.27
2023-05-01T09:06:06.554Z,25.28
2023-05-01T09:07:06.487Z,25.30
2023-05-01T09:08:06.519Z,25.30
2023-05-01T09:09:06.488Z,25.31
2023-05-01T09:10:06.512Z,25.32
2023-05-01T09:11:06.506Z,25.34
2023-05-01T09:12:06.446Z,25.32
2023-05-01T09:13:06.447Z,25.34
2023-05-01T09:14:06.485Z,25.32
2023-05-01T09:15:06.448Z,25.32
2023-05-01T09:16:06.430Z,25.35
2023-05-01T09:17:06.427Z,25.34
2023-05-01T09:18:06.486Z,25.35
2023-05-01T09:19:06.432Z,25.34
2023-05-01T09:20:06.414Z,25.34
2023-05-01T09:21:06.403Z,25.37
2023-05-01T09:22:06.440Z,25.34
2023-05-01T09:23:06.476Z,25.34
2023-05-01T09:24:06.391Z,25.34
2023-05-01T09:25:06.391Z,25.35
2023-05-01T09:26:06.399Z,25.35
2023-05-01T09:27:06.372Z,25.37
2023-05-01T09:28:06.384Z,25.35
2023-05-01T09:29:06.359Z,25.34
2023-05-01T09:30:06.382Z,25.38
2023-05-01T09:31:06.340Z,25.38
2023-05-01T09:32:06.387Z,25.37
2023-05-01T09:33:06.446Z,25.35
2023-05-01T09:34:06.349Z,25.35
2023-05-01T09:35:06.355Z,25.38
2023-05-01T09:36:06.315Z,25.37
2023-05-01T09:37:06.318Z,25.38
2023-05-01T09:38:06.338Z,25.38
2023-05-01T09:39:06.318Z,25.40
2023-05-01T09:40:06.303Z,25.37
2023-05-01T09:41:06.311Z,25.38
2023-05-01T09:42:06.262Z,25.41
2023-05-01T09:43:06.305Z,25.40
2023-05-01T09:44:06.267Z,25.42
2023-05-01T09:45:06.247Z,25.41
2023-05-01T09:46:06.268Z,25.40
2023-05-01T09:47:06.232Z,25.44
2023-05-01T09:48:06.309Z,25.41
2023-05-01T09:49:06.246Z,25.41
2023-05-01T09:50:06.221Z,25.41
2023-05-01T09:51:06.204Z,25.44
2023-05-01T09:52:06.216Z,25.41
2023-05-01T09:53:06.228Z,25.42
2023-05-01T09:54:06.187Z,25.45
2023-05-01T09:55:06.195Z,25.41
2023-05-01T09:56:06.193Z,25.42
2023-05-01T09:57:06.166Z,25.41
2023-05-01T09:58:06.188Z,25.42
2023-05-01T09:59:06.161Z,25.41
2023-05-01T10:00:06.211Z,25.42
2023-05-01T10:01:06.227Z,25.42
2023-05-01T10:02:06.190Z,25.41
2023-05-01T10:03:06.619Z,25.42
2023-05-01T10:04:06.200Z,25.41
2023-05-01T10:05:06.106Z,25.42
2023-05-01T10:06:06.239Z,25.42
2023-05-01T10:07:06.087Z,25.41
2023-05-01T10:08:06.168Z,25.41
2023-05-01T10:09:06.121Z,25.41
2023-05-01T10:10:06.093Z,25.42
2023-05-01T10:11:06.053Z,25.41
2023-05-01T10:12:06.073Z,25.42
2023-05-01T10:13:06.060Z,25.40
2023-05-01T10:14:06.068Z,25.40
2023-05-01T10:15:21.023Z,25.41
2023-05-01T10:16:07.054Z,25.41
2023-05-01T10:17:06.103Z,25.41
2023-05-01T10:18:06.082Z,25.40
2023-05-01T10:19:06.004Z,25.40
2023-05-01T10:20:06.031Z,25.41
2023-05-01T10:21:06.034Z,25.41
2023-05-01T10:22:06.003Z,25.40
2023-05-01T10:23:05.987Z,25.42
2023-05-01T10:24:06.080Z,25.42
2023-05-01T10:25:05.959Z,25.40
2023-05-01T10:26:07.123Z,25.42
2023-05-01T10:27:05.948Z,25.40
2023-05-01T10:28:05.955Z,25.41
2023-05-01T10:29:05.939Z,25.42
2023-05-01T10:30:05.930Z,25.41
2023-05-01T10:31:05.962Z,25.40
2023-05-01T10:32:05.931Z,25.41
2023-05-01T10:33:05.998Z,25.44
2023-05-01T10:34:05.945Z,25.41
2023-05-01T10:35:05.894Z,25.44
2023-05-01T10:36:05.913Z,25.44
2023-05-01T10:37:05.880Z,25.42
2023-05-01T10:38:06.310Z,25.41
2023-05-01T10:39:05.859Z,25.45
2023-05-01T10:40:05.873Z,25.42
2023-05-01T10:41:05.857Z,25.44
2023-05-01T10:42:05.859Z,25.42
2023-05-01T10:43:05.851Z,25.44
2023-05-01T10:44:05.837Z,25.42
2023-05-01T10:45:05.815Z,25.40
2023-05-01T10:46:06.059Z,25.41
2023-05-01T10:47:05.804Z,25.41
2023-05-01T10:48:05.829Z,25.41
2023-05-01T10:49:05.800Z,25.41
2023-05-01T10:50:05.797Z,25.41
2023-05-01T10:51:05.781Z,25.42
2023-05-01T10:52:05.780Z,25.44
2023-05-01T10:53:05.812Z,25.40
2023-05-01T10:54:05.822Z,25.41
2023-05-01T10:55:05.787Z,25.41
2023-05-01T10:56:05.814Z,25.41
2023-05-01T10:57:05.822Z,25.41
2023-05-01T10:58:05.796Z,25.40
2023-05-01T10:59:05.788Z,25.42
2023-05-01T11:00:05.807Z,25.40
2023-05-01T11:01:05.811Z,25.40
2023-05-01T11:02:05.849Z,25.38
2023-05-01T11:03:05.858Z,25.41
2023-05-01T11:04:05.826Z,25.40
2023-05-01T11:05:05.826Z,25.38
2023-05-01T11:06:05.946Z,25.40
2023-05-01T11:07:06.004Z,25.40
2023-05-01T11:08:05.823Z,25.42
2023-05-01T11:09:05.815Z,25.42
2023-05-01T11:10:05.835Z,25.42
2023-05-01T11:11:05.837Z,25.41
2023-05-01T11:12:05.839Z,25.42
2023-05-01T11:13:05.819Z,25.44
2023-05-01T11:14:05.807Z,25.40
2023-05-01T11:15:05.889Z,25.41
2023-05-01T11:16:05.889Z,25.40
2023-05-01T11:17:05.851Z,25.42
2023-05-01T11:18:05.870Z,25.44
2023-05-01T11:19:05.882Z,25.44
2023-05-01T11:20:05.869Z,25.44
2023-05-01T11:21:05.879Z,25.42
2023-05-01T11:22:05.838Z,25.44
2023-05-01T11:23:05.869Z,25.42
2023-05-01T11:24:05.853Z,25.44
2023-05-01T11:25:05.838Z,25.42
2023-05-01T11:26:05.868Z,25.42
2023-05-01T11:27:05.860Z,25.42
2023-05-01T11:28:05.858Z,25.44
2023-05-01T11:29:05.873Z,25.42
2023-05-01T11:30:05.850Z,25.42
2023-05-01T11:31:05.868Z,25.44
2023-05-01T11:32:05.958Z,25.42
2023-05-01T11:33:07.149Z,25.45
2023-05-01T11:34:05.868Z,25.45
2023-05-01T11:35:05.836Z,25.44
2023-05-01T11:36:05.841Z,25.42
2023-05-01T11:37:05.851Z,25.45
2023-05-01T11:38:05.813Z,25.45
2023-05-01T11:39:05.843Z,25.44
2023-05-01T11:40:05.819Z,25.44
2023-05-01T11:41:05.808Z,25.44
2023-05-01T11:42:05.819Z,25.42
2023-05-01T11:43:05.935Z,25.40
2023-05-01T11:44:05.775Z,25.42
2023-05-01T11:45:05.787Z,25.41
2023-05-01T11:46:05.798Z,25.38
2023-05-01T11:47:05.779Z,25.41
2023-05-01T11:48:05.813Z,25.40
2023-05-01T11:49:05.757Z,25.40
2023-05-01T11:50:05.738Z,25.35
2023-05-01T11:51:05.745Z,25.32
2023-05-01T11:52:05.729Z,25.35
2023-05-01T11:53:05.738Z,25.34
2023-05-01T11:54:05.736Z,25.37
2023-05-01T11:55:05.698Z,25.34
2023-05-01T11:56:10.883Z,25.35
2023-05-01T11:57:06.704Z,25.34
2023-05-01T11:58:05.679Z,25.34
2023-05-01T11:59:05.715Z,25.34
2023-05-01T12:00:05.674Z,25.35
2023-05-01T12:01:05.677Z,25.34
2023-05-01T12:02:05.716Z,25.35
2023-05-01T12:03:05.760Z,25.32
2023-05-01T12:04:06.460Z,25.32
2023-05-01T12:05:05.742Z,25.32
2023-05-01T12:06:05.654Z,25.32
2023-05-01T12:07:05.606Z,25.31
2023-05-01T12:08:05.611Z,25.31
2023-05-01T12:09:05.609Z,25.30
2023-05-01T12:10:05.597Z,25.28
2023-05-01T12:11:05.605Z,25.31
2023-05-01T12:12:05.598Z,25.28
2023-05-01T12:13:05.603Z,25.30
2023-05-01T12:14:05.568Z,25.27
2023-05-01T12:15:05.559Z,25.28
2023-05-01T12:16:05.557Z,25.28
2023-05-01T12:17:05.653Z,25.28
2023-05-01T12:18:05.678Z,25.27
2023-05-01T12:19:05.548Z,25.27
2023-05-01T12:20:05.545Z,25.25
2023-05-01T12:21:05.513Z,25.28
2023-05-01T12:22:05.551Z,25.27
2023-05-01T12:23:05.502Z,25.28
2023-05-01T12:24:05.509Z,25.30
2023-05-01T12:25:05.512Z,25.27
2023-05-01T12:26:05.485Z,25.32
2023-05-01T12:27:05.492Z,25.30
2023-05-01T12:28:05.491Z,25.28
2023-05-01T12:29:05.525Z,25.30
2023-05-01T12:30:05.465Z,25.31
2023-05-01T12:31:05.702Z,25.30
2023-05-01T12:32:05.541Z,25.32
2023-05-01T12:33:05.484Z,25.30
2023-05-01T12:34:05.448Z,25.31
2023-05-01T12:35:05.451Z,25.31
2023-05-01T12:36:05.473Z,25.34
2023-05-01T12:37:05.581Z,25.31
2023-05-01T12:38:05.492Z,25.31
2023-05-01T12:39:05.507Z,25.34
2023-05-01T12:40:05.477Z,25.34
2023-05-01T12:41:05.497Z,25.34
2023-05-01T12:42:05.490Z,25.35
2023-05-01T12:43:05.493Z,25.38
2023-05-01T12:44:05.504Z,25.37
2023-05-01T12:45:05.516Z,25.37
2023-05-01T12:46:05.587Z,25.40
2023-05-01T12:47:05.525Z,25.41
2023-05-01T12:48:05.551Z,25.42
2023-05-01T12:49:05.527Z,25.42
2023-05-01T12:50:05.529Z,25.45
2023-05-01T12:51:05.537Z,25.44
2023-05-01T12:52:05.519Z,25.46
2023-05-01T12:53:05.527Z,25.46